Time;durP1;ratioP1;P1;durP2;ratioP2;P2;SDS_P1;SDS_P2;PMS_P1;PMS_P2;Temp;Humidity;BMP_temperature;BMP_pressure;BME280_temperature;BME280_humidity;BME280_pressure;Samples;Min_cycle;Max_cycle;Signal;HPM_P1;HPM_P2
2023/01/08 00:00:46;;;;;;;29.10;14.33;;;9.80;59.70;;;;;;5088011;28;20447;-84
2023/01/08 00:03:13;;;;;;;27.40;16.37;;;9.90;59.80;;;;;;5082488;27;20478;-84
2023/01/08 00:05:41;;;;;;;21.20;14.47;;;9.80;59.90;;;;;;5071484;28;20446;-84
2023/01/08 00:08:08;;;;;;;23.40;14.00;;;10.00;58.80;;;;;;5074911;27;20855;-85
2023/01/08 00:10:35;;;;;;;19.13;12.00;;;9.80;59.60;;;;;;5054271;28;20747;-84
2023/01/08 00:13:04;;;;;;;22.20;12.73;;;9.70;59.90;;;;;;5087847;28;20445;-85
2023/01/08 00:15:32;;;;;;;21.80;13.37;;;9.90;59.70;;;;;;5054011;28;20507;-85
2023/01/08 00:17:59;;;;;;;26.37;15.60;;;9.90;59.50;;;;;;5102713;27;20467;-86
2023/01/08 00:20:27;;;;;;;26.90;16.07;;;9.80;59.80;;;;;;5052779;28;20985;-85
2023/01/08 00:22:54;;;;;;;29.33;15.93;;;9.70;59.90;;;;;;5073737;28;20474;-84
2023/01/08 00:25:21;;;;;;;23.40;14.47;;;9.80;60.10;;;;;;5046939;28;20504;-84
2023/01/08 00:27:48;;;;;;;29.90;16.67;;;9.80;59.90;;;;;;5071365;28;20918;-85
2023/01/08 00:30:17;;;;;;;23.20;15.13;;;10.00;58.80;;;;;;5061630;28;20492;-82
2023/01/08 00:32:43;;;;;;;25.97;15.27;;;10.10;58.50;;;;;;5071295;28;20463;-84
2023/01/08 00:35:10;;;;;;;25.53;14.30;;;9.90;59.60;;;;;;5069996;27;20507;-83
2023/01/08 00:37:37;;;;;;;28.23;16.17;;;9.90;60.00;;;;;;5067162;28;20450;-85
2023/01/08 00:40:05;;;;;;;27.80;15.97;;;9.90;59.90;;;;;;5087604;28;20821;-86
2023/01/08 00:42:33;;;;;;;31.23;16.70;;;10.00;58.70;;;;;;5069702;28;20997;-85
2023/01/08 00:44:59;;;;;;;23.03;13.90;;;10.10;58.40;;;;;;5069694;28;20454;-85
2023/01/08 00:47:28;;;;;;;24.10;14.03;;;9.90;59.60;;;;;;5074466;28;20435;-83
2023/01/08 00:49:55;;;;;;;23.10;14.77;;;9.90;59.80;;;;;;5059128;28;20454;-86
2023/01/08 00:52:22;;;;;;;26.90;15.63;;;10.10;58.70;;;;;;5052521;27;20467;-85
2023/01/08 00:54:48;;;;;;;25.47;15.10;;;10.20;58.20;;;;;;5059676;28;20439;-86
2023/01/08 00:57:15;;;;;;;25.10;14.67;;;10.40;58.20;;;;;;5054160;27;20969;-85
2023/01/08 00:59:42;;;;;;;25.20;14.30;;;10.20;58.40;;;;;;5070291;28;20474;-85
2023/01/08 01:02:10;;;;;;;23.83;14.67;;;10.20;58.50;;;;;;5069804;28;20439;-85
2023/01/08 01:04:38;;;;;;;28.37;17.30;;;10.30;58.50;;;;;;5076838;28;21160;-84
2023/01/08 01:07:05;;;;;;;22.47;14.90;;;10.30;58.20;;;;;;5086759;28;20485;-84
2023/01/08 01:09:32;;;;;;;21.47;13.60;;;10.30;58.30;;;;;;5068137;28;21007;-85
2023/01/08 01:11:59;;;;;;;18.00;12.87;;;10.10;58.70;;;;;;5069830;27;20469;-86
2023/01/08 01:14:26;;;;;;;20.27;12.53;;;10.20;58.80;;;;;;5058039;28;20457;-85
2023/01/08 01:16:53;;;;;;;19.37;12.97;;;10.20;58.60;;;;;;5087899;28;20447;-85
2023/01/08 01:19:20;;;;;;;19.50;12.00;;;10.10;58.80;;;;;;5069566;27;20471;-85
2023/01/08 01:21:48;;;;;;;19.33;10.27;;;10.00;59.00;;;;;;5104494;27;20464;-82
2023/01/08 01:24:15;;;;;;;15.13;11.10;;;10.10;59.00;;;;;;5102806;28;20439;-83
2023/01/08 01:26:42;;;;;;;17.90;10.60;;;10.30;58.50;;;;;;5069397;28;20450;-85
2023/01/08 01:29:09;;;;;;;15.17;10.37;;;10.30;57.70;;;;;;5085931;27;20525;-85
2023/01/08 01:31:36;;;;;;;14.97;10.43;;;10.10;58.60;;;;;;5067956;28;20883;-86
2023/01/08 01:34:03;;;;;;;14.13;9.70;;;9.90;60.00;;;;;;5069949;27;20825;-85
2023/01/08 01:36:30;;;;;;;15.43;11.53;;;10.00;59.10;;;;;;5082617;28;20938;-86
2023/01/08 01:38:58;;;;;;;16.57;11.10;;;10.10;58.90;;;;;;5069085;28;20463;-84
2023/01/08 01:41:28;;;;;;;15.47;10.87;;;10.00;59.40;;;;;;5069768;28;20927;-85
2023/01/08 01:43:56;;;;;;;16.67;10.57;;;10.10;59.10;;;;;;5086583;28;20488;-85
2023/01/08 01:46:36;;;;;;;16.23;11.50;;;10.20;58.50;;;;;;5065275;28;20454;-84
2023/01/08 01:49:08;;;;;;;17.53;11.50;;;10.20;58.70;;;;;;5076380;28;20542;-86
2023/01/08 01:51:37;;;;;;;22.43;11.13;;;10.20;59.10;;;;;;5050798;28;21003;-85
2023/01/08 01:54:09;;;;;;;19.77;11.60;;;10.30;59.10;;;;;;5102352;27;20439;-83
2023/01/08 01:56:36;;;;;;;16.27;11.80;;;10.30;58.80;;;;;;5084322;28;20451;-85
2023/01/08 01:59:04;;;;;;;17.07;11.07;;;10.40;58.50;;;;;;5091908;27;20474;-86
2023/01/08 02:01:32;;;;;;;17.50;11.87;;;10.50;58.20;;;;;;5043910;28;20446;-85
2023/01/08 02:03:59;;;;;;;15.17;11.60;;;10.50;58.30;;;;;;5068428;28;20548;-84
2023/01/08 02:06:36;;;;;;;17.93;11.50;;;10.50;58.20;;;;;;5081941;28;20807;-85
2023/01/08 02:09:13;;;;;;;20.30;11.73;;;10.50;58.50;;;;;;5059693;28;21041;-84
2023/01/08 02:11:47;;;;;;;27.40;14.73;;;10.30;58.90;;;;;;5068909;28;20470;-85
2023/01/08 02:14:22;;;;;;;27.37;15.50;;;10.30;58.80;;;;;;5067208;28;20469;-84
2023/01/08 02:16:55;;;;;;;25.43;15.33;;;10.50;58.90;;;;;;5083235;28;20454;-84
2023/01/08 02:19:43;;;;;;;16.97;10.83;;;10.60;58.50;;;;;;5100365;28;20533;-85
2023/01/08 02:22:21;;;;;;;21.70;11.37;;;10.60;57.80;;;;;;5069422;27;20979;-85
2023/01/08 02:24:56;;;;;;;22.47;12.63;;;10.40;58.00;;;;;;5068813;28;20830;-84
2023/01/08 02:27:30;;;;;;;24.03;13.87;;;10.10;59.40;;;;;;5048395;28;20442;-85
2023/01/08 02:29:58;;;;;;;27.53;12.87;;;9.80;61.30;;;;;;5077959;28;20507;-85
2023/01/08 02:32:27;;;;;;;18.97;12.00;;;9.90;61.60;;;;;;5067231;28;20475;-85
2023/01/08 02:34:54;;;;;;;16.90;11.80;;;10.10;60.20;;;;;;5084819;28;20446;-84
2023/01/08 02:37:21;;;;;;;24.43;12.30;;;10.30;59.70;;;;;;5073812;28;20913;-85
2023/01/08 02:40:03;;;;;;;15.73;11.70;;;10.50;59.50;;;;;;5070638;28;20482;-84
2023/01/08 02:42:36;;;;;;;17.27;11.20;;;10.60;58.80;;;;;;5101968;27;20439;-85
2023/01/08 02:45:11;;;;;;;18.53;11.40;;;10.30;59.60;;;;;;5058023;28;20451;-85
2023/01/08 02:47:42;;;;;;;13.50;10.90;;;10.00;60.10;;;;;;5049368;28;20447;-84
2023/01/08 02:50:24;;;;;;;15.33;10.67;;;9.90;61.90;;;;;;5066549;28;20541;-85
2023/01/08 02:52:57;;;;;;;19.20;12.70;;;10.20;60.40;;;;;;5059057;28;20878;-85
2023/01/08 02:55:26;;;;;;;19.37;12.77;;;10.40;59.80;;;;;;5058028;27;20538;-84
2023/01/08 02:57:55;;;;;;;17.67;11.30;;;10.50;59.40;;;;;;5067876;28;20467;-84
2023/01/08 03:00:23;;;;;;;14.87;11.17;;;10.50;59.50;;;;;;5091559;28;20524;-84
2023/01/08 03:02:51;;;;;;;15.17;10.60;;;10.40;59.60;;;;;;5067749;28;20443;-84
2023/01/08 03:05:25;;;;;;;15.40;10.50;;;10.30;59.80;;;;;;5081698;28;20679;-84
2023/01/08 03:07:52;;;;;;;17.93;10.77;;;10.20;60.40;;;;;;5084302;28;20466;-85
2023/01/08 03:10:22;;;;;;;14.43;10.87;;;10.30;60.30;;;;;;5065413;28;20438;-84
2023/01/08 03:12:54;;;;;;;21.10;11.73;;;10.50;59.70;;;;;;5039151;28;20465;-84
2023/01/08 03:15:27;;;;;;;16.53;10.43;;;10.60;59.30;;;;;;5072306;28;20515;-83
2023/01/08 03:17:59;;;;;;;18.50;11.80;;;10.50;59.50;;;;;;5084598;28;20469;-84
2023/01/08 03:20:27;;;;;;;13.87;9.97;;;10.20;60.30;;;;;;5049526;28;20450;-85
2023/01/08 03:22:57;;;;;;;13.53;10.40;;;10.30;60.40;;;;;;5057780;28;20837;-84
2023/01/08 03:25:28;;;;;;;16.00;10.43;;;10.50;60.00;;;;;;5085995;28;20457;-84
2023/01/08 03:27:59;;;;;;;13.97;10.10;;;10.60;59.30;;;;;;5070682;28;20467;-84
2023/01/08 03:30:30;;;;;;;13.03;9.30;;;10.30;60.00;;;;;;5088222;27;20878;-84
2023/01/08 03:33:00;;;;;;;14.17;9.87;;;10.50;59.90;;;;;;5071866;28;20835;-84
2023/01/08 03:35:29;;;;;;;17.23;10.30;;;10.60;59.30;;;;;;5091462;28;20446;-83
2023/01/08 03:38:02;;;;;;;14.70;10.67;;;10.50;59.60;;;;;;5070432;28;20507;-84
2023/01/08 03:40:34;;;;;;;14.73;10.03;;;10.60;59.70;;;;;;5104474;27;20461;-86
2023/01/08 03:43:01;;;;;;;15.60;9.90;;;10.40;59.80;;;;;;5055378;28;20836;-84
2023/01/08 03:45:32;;;;;;;16.57;10.57;;;10.40;59.70;;;;;;5082890;28;20458;-85
2023/01/08 03:48:02;;;;;;;13.97;10.60;;;10.10;61.20;;;;;;5071739;28;20477;-84
2023/01/08 03:50:31;;;;;;;12.60;10.23;;;10.20;61.40;;;;;;5069157;28;20435;-85
2023/01/08 03:52:58;;;;;;;12.70;9.73;;;10.40;60.90;;;;;;5107050;27;20474;-83
2023/01/08 03:55:25;;;;;;;19.50;12.70;;;10.50;60.20;;;;;;5068448;27;20426;-85
2023/01/08 03:57:52;;;;;;;19.20;12.20;;;10.50;60.10;;;;;;5071786;28;20848;-84
2023/01/08 04:00:19;;;;;;;16.80;11.10;;;10.50;59.60;;;;;;5085362;28;20481;-84
2023/01/08 04:02:47;;;;;;;33.33;15.57;;;10.30;60.30;;;;;;5072054;28;20741;-83
2023/01/08 04:05:14;;;;;;;33.20;17.30;;;10.40;60.20;;;;;;5070420;28;20466;-84
2023/01/08 04:07:41;;;;;;;17.83;11.00;;;10.40;60.00;;;;;;5107248;27;20808;-84
2023/01/08 04:10:08;;;;;;;17.10;11.70;;;10.00;61.40;;;;;;5056553;27;20520;-85
2023/01/08 04:12:35;;;;;;;14.23;10.10;;;10.00;61.60;;;;;;5051247;28;20482;-83
2023/01/08 04:15:02;;;;;;;16.07;10.00;;;10.00;61.20;;;;;;5078629;28;20438;-84
2023/01/08 04:17:30;;;;;;;18.73;10.87;;;10.20;60.90;;;;;;5086477;27;20802;-84
2023/01/08 04:19:58;;;;;;;21.17;11.93;;;10.40;59.90;;;;;;5076769;28;20511;-84
2023/01/08 04:22:25;;;;;;;15.37;11.40;;;10.00;61.00;;;;;;5044717;28;21949;-84
2023/01/08 04:24:52;;;;;;;16.33;10.73;;;10.10;61.30;;;;;;5053606;28;20445;-83
2023/01/08 04:27:19;;;;;;;20.30;11.90;;;10.20;60.80;;;;;;5056619;28;20869;-83
2023/01/08 04:29:46;;;;;;;17.80;11.73;;;10.10;61.40;;;;;;5071200;28;20456;-85
2023/01/08 04:32:12;;;;;;;19.17;12.53;;;10.20;60.80;;;;;;5053386;28;20439;-84
2023/01/08 04:34:39;;;;;;;18.93;11.80;;;9.90;62.70;;;;;;5046617;28;20828;-85
2023/01/08 04:37:08;;;;;;;14.23;11.40;;;9.70;63.50;;;;;;5071885;28;20446;-81
2023/01/08 04:39:35;;;;;;;20.33;13.27;;;9.90;63.60;;;;;;5087950;28;20991;-85
2023/01/08 04:42:02;;;;;;;19.30;11.73;;;10.00;61.70;;;;;;5056608;28;20461;-84
2023/01/08 04:44:28;;;;;;;17.70;11.47;;;9.90;63.40;;;;;;5069085;28;20461;-83
2023/01/08 04:46:55;;;;;;;15.77;10.67;;;9.70;63.60;;;;;;5103827;27;20448;-84
2023/01/08 04:49:22;;;;;;;17.00;10.83;;;9.90;63.80;;;;;;5064524;27;20885;-84
2023/01/08 04:51:49;;;;;;;13.73;10.00;;;10.20;61.90;;;;;;5069702;28;20438;-84
2023/01/08 04:54:17;;;;;;;21.00;13.17;;;10.50;61.30;;;;;;5047651;28;20859;-83
2023/01/08 04:56:44;;;;;;;16.07;11.37;;;10.40;60.10;;;;;;5065679;28;20447;-84
2023/01/08 04:59:11;;;;;;;12.30;10.20;;;10.30;61.00;;;;;;5072429;28;20535;-84
2023/01/08 05:01:38;;;;;;;17.93;11.20;;;10.30;61.40;;;;;;5052735;28;20492;-83
2023/01/08 05:04:06;;;;;;;15.67;10.93;;;10.40;60.80;;;;;;5087080;28;20466;-84
2023/01/08 05:06:33;;;;;;;12.77;9.70;;;10.10;61.90;;;;;;5085534;28;20461;-84
2023/01/08 05:09:00;;;;;;;13.77;10.53;;;10.00;62.60;;;;;;5052648;28;20474;-84
2023/01/08 05:11:28;;;;;;;16.43;11.93;;;10.20;62.60;;;;;;5084965;28;22168;-85
2023/01/08 05:13:56;;;;;;;15.33;10.70;;;10.10;62.50;;;;;;5055954;28;20465;-83
2023/01/08 05:16:23;;;;;;;14.23;9.70;;;10.00;62.80;;;;;;5054377;27;20817;-84
2023/01/08 05:18:50;;;;;;;10.30;8.07;;;9.90;65.00;;;;;;5070986;28;20484;-84
2023/01/08 05:21:17;;;;;;;9.53;7.87;;;9.90;65.50;;;;;;5066620;27;20439;-85
2023/01/08 05:23:46;;;;;;;16.70;11.10;;;10.20;64.10;;;;;;5071170;28;20427;-84
2023/01/08 05:26:13;;;;;;;14.93;10.50;;;10.30;63.60;;;;;;5086164;28;20454;-83
2023/01/08 05:28:41;;;;;;;15.43;11.03;;;10.40;63.40;;;;;;5079676;28;20827;-84
2023/01/08 05:31:08;;;;;;;13.13;10.33;;;10.60;63.00;;;;;;5066660;28;20457;-82
2023/01/08 05:33:35;;;;;;;15.63;11.77;;;10.70;62.50;;;;;;5052277;28;22389;-84
2023/01/08 05:36:05;;;;;;;13.93;10.03;;;10.70;62.90;;;;;;5077119;28;20817;-84
2023/01/08 05:38:32;;;;;;;17.17;11.90;;;10.60;62.90;;;;;;5066916;27;20476;-85
2023/01/08 05:40:58;;;;;;;13.70;10.23;;;10.40;62.80;;;;;;5055996;28;20527;-84
2023/01/08 05:43:26;;;;;;;14.17;10.80;;;10.20;63.50;;;;;;5084389;28;20959;-85
2023/01/08 05:45:54;;;;;;;14.10;10.60;;;10.10;64.00;;;;;;5068925;28;20538;-84
2023/01/08 05:48:21;;;;;;;15.93;9.70;;;10.30;63.80;;;;;;5065744;27;20484;-83
2023/01/08 05:50:49;;;;;;;16.00;10.37;;;10.60;62.80;;;;;;5078836;28;20496;-82
2023/01/08 05:53:16;;;;;;;15.00;10.53;;;10.70;61.90;;;;;;5064959;28;20470;-83
2023/01/08 05:55:43;;;;;;;14.53;11.00;;;10.70;61.80;;;;;;5087237;28;20450;-85
2023/01/08 05:58:10;;;;;;;12.57;9.57;;;10.60;62.80;;;;;;5085465;28;21036;-83
2023/01/08 06:00:38;;;;;;;15.63;11.43;;;10.70;62.70;;;;;;5084769;28;21372;-84
2023/01/08 06:03:06;;;;;;;18.43;11.40;;;10.80;62.80;;;;;;5086287;28;20446;-84
2023/01/08 06:05:33;;;;;;;23.97;12.00;;;10.80;62.70;;;;;;5049761;28;20447;-85
2023/01/08 06:08:00;;;;;;;15.57;11.73;;;11.00;62.20;;;;;;5068804;28;20466;-84
2023/01/08 06:10:28;;;;;;;12.77;10.03;;;11.10;61.80;;;;;;5085469;27;20450;-85
2023/01/08 06:12:55;;;;;;;13.80;11.40;;;11.10;61.90;;;;;;5077532;28;20470;-84
2023/01/08 06:15:22;;;;;;;14.80;11.17;;;11.10;61.70;;;;;;5066797;28;20443;-84
2023/01/08 06:17:49;;;;;;;16.10;11.17;;;11.00;61.90;;;;;;5041009;28;20914;-83
2023/01/08 06:20:17;;;;;;;16.67;11.80;;;11.10;61.60;;;;;;5059891;28;20851;-84
2023/01/08 06:22:44;;;;;;;18.27;11.97;;;11.20;61.10;;;;;;5051737;28;20964;-83
2023/01/08 06:25:11;;;;;;;17.20;11.70;;;11.20;61.20;;;;;;5043734;28;20460;-83
2023/01/08 06:27:38;;;;;;;14.53;10.70;;;11.20;61.30;;;;;;5052459;28;20847;-84
2023/01/08 06:30:06;;;;;;;15.80;11.13;;;11.10;61.50;;;;;;5085621;28;20443;-84
2023/01/08 06:32:33;;;;;;;13.93;10.40;;;11.00;62.40;;;;;;5065992;28;20451;-84
2023/01/08 06:35:00;;;;;;;17.30;11.60;;;10.90;62.10;;;;;;5068335;28;20491;-84
2023/01/08 06:37:28;;;;;;;17.50;11.63;;;10.80;62.60;;;;;;5058401;28;20451;-85
2023/01/08 06:39:55;;;;;;;19.50;13.50;;;10.80;62.70;;;;;;5067472;28;20463;-84
2023/01/08 06:42:22;;;;;;;20.33;12.50;;;10.80;62.70;;;;;;5101361;28;20461;-84
2023/01/08 06:44:49;;;;;;;20.17;11.70;;;10.90;62.80;;;;;;5067752;28;20443;-84
2023/01/08 06:47:16;;;;;;;16.30;11.90;;;11.00;62.40;;;;;;5059142;28;20443;-84
2023/01/08 06:49:43;;;;;;;15.70;12.10;;;11.10;62.00;;;;;;5067612;28;20479;-84
2023/01/08 06:52:10;;;;;;;214.37;95.80;;;11.10;61.20;;;;;;5068600;28;20447;-84
2023/01/08 06:54:39;;;;;;;160.97;63.43;;;10.70;62.30;;;;;;5083729;28;20471;-84
2023/01/08 06:57:05;;;;;;;174.97;73.90;;;10.20;64.70;;;;;;5085034;28;20462;-83
2023/01/08 06:59:32;;;;;;;22.10;13.83;;;10.10;65.40;;;;;;5071326;28;20486;-84
2023/01/08 07:01:59;;;;;;;46.90;32.57;;;10.30;64.60;;;;;;5053839;28;20447;-84
2023/01/08 07:04:26;;;;;;;26.37;18.30;;;10.40;64.50;;;;;;5046999;28;20443;-83
2023/01/08 07:06:53;;;;;;;22.60;17.50;;;10.50;64.90;;;;;;5068706;28;21014;-84
2023/01/08 07:09:20;;;;;;;19.97;13.80;;;10.50;64.50;;;;;;5064892;27;20463;-83
2023/01/08 07:11:48;;;;;;;23.30;15.43;;;10.70;63.60;;;;;;5051529;28;20457;-84
2023/01/08 07:14:15;;;;;;;20.50;13.60;;;10.80;63.20;;;;;;5074760;28;20467;-84
2023/01/08 07:16:42;;;;;;;18.73;12.90;;;10.70;63.30;;;;;;5083389;28;20461;-84
2023/01/08 07:19:09;;;;;;;16.37;11.63;;;10.80;63.50;;;;;;5044332;28;20518;-84
2023/01/08 07:21:36;;;;;;;17.43;12.10;;;10.90;63.30;;;;;;5065805;28;20454;-85
2023/01/08 07:24:04;;;;;;;17.00;11.20;;;10.90;62.70;;;;;;5067690;28;21189;-84
2023/01/08 07:26:30;;;;;;;17.43;11.67;;;10.90;62.60;;;;;;5100729;28;20835;-84
2023/01/08 07:28:59;;;;;;;15.73;11.30;;;10.90;62.80;;;;;;5058253;28;20462;-84
2023/01/08 07:31:26;;;;;;;16.50;11.10;;;10.80;63.00;;;;;;5066134;28;20504;-84
2023/01/08 07:33:53;;;;;;;15.63;11.20;;;10.80;63.70;;;;;;5050628;28;20486;-84
2023/01/08 07:36:21;;;;;;;17.13;12.07;;;10.80;63.40;;;;;;5067265;28;20458;-84
2023/01/08 07:38:48;;;;;;;16.10;12.67;;;10.80;63.60;;;;;;5066468;28;21270;-85
2023/01/08 07:41:15;;;;;;;23.93;17.27;;;10.80;63.80;;;;;;5081019;28;20446;-85
2023/01/08 07:43:42;;;;;;;20.87;12.67;;;10.50;64.10;;;;;;5073970;28;20446;-83
2023/01/08 07:46:11;;;;;;;17.00;12.03;;;10.60;64.50;;;;;;5066241;28;20453;-82
2023/01/08 07:48:38;;;;;;;12.20;8.40;;;10.60;64.60;;;;;;5095619;28;20930;-85
2023/01/08 07:51:06;;;;;;;8.07;5.70;;;10.50;65.10;;;;;;5068552;28;20457;-84
2023/01/08 07:53:34;;;;;;;12.90;9.73;;;10.30;66.50;;;;;;5067795;28;20470;-84
2023/01/08 07:56:01;;;;;;;11.20;8.40;;;10.40;66.60;;;;;;5102396;28;20446;-84
2023/01/08 07:58:28;;;;;;;7.73;6.33;;;10.60;66.00;;;;;;5072666;28;20470;-84
2023/01/08 08:00:56;;;;;;;12.97;10.13;;;10.60;65.80;;;;;;5083517;28;20455;-86
2023/01/08 08:03:25;;;;;;;11.07;7.00;;;10.90;65.30;;;;;;5049308;28;20474;-83
2023/01/08 08:05:52;;;;;;;6.93;4.60;;;11.10;64.80;;;;;;5070918;28;20455;-84
2023/01/08 08:08:19;;;;;;;8.67;7.00;;;11.10;64.80;;;;;;5066007;28;20474;-82
2023/01/08 08:10:47;;;;;;;14.50;9.00;;;11.20;64.30;;;;;;5062147;28;20506;-84
2023/01/08 08:13:14;;;;;;;20.50;11.90;;;11.30;64.10;;;;;;5054732;28;20446;-83
2023/01/08 08:15:41;;;;;;;40.60;24.33;;;11.40;64.10;;;;;;5060015;28;20535;-83
2023/01/08 08:18:09;;;;;;;193.37;58.67;;;11.40;64.30;;;;;;5062865;28;20975;-85
2023/01/08 08:20:37;;;;;;;88.00;34.40;;;11.40;64.10;;;;;;5068700;28;20439;-85
2023/01/08 08:23:07;;;;;;;84.50;31.67;;;11.40;64.70;;;;;;5052189;28;20531;-85
2023/01/08 08:25:35;;;;;;;130.03;67.30;;;11.40;64.60;;;;;;5054177;27;20875;-87
2023/01/08 08:28:03;;;;;;;67.27;35.60;;;11.40;65.00;;;;;;5048032;28;21093;-85
2023/01/08 08:30:32;;;;;;;36.93;19.83;;;11.50;64.40;;;;;;5046759;28;20806;-85
2023/01/08 08:33:00;;;;;;;40.37;21.40;;;11.50;64.10;;;;;;5105315;28;20545;-83
2023/01/08 08:35:28;;;;;;;23.50;14.80;;;11.60;64.30;;;;;;5059282;28;20501;-87
2023/01/08 08:37:57;;;;;;;24.40;16.03;;;11.40;64.70;;;;;;5069709;28;20455;-86
2023/01/08 08:40:24;;;;;;;23.97;12.40;;;11.50;64.90;;;;;;5060272;28;20461;-86
2023/01/08 08:42:55;;;;;;;44.30;21.60;;;11.40;64.60;;;;;;5052250;28;20461;-86
2023/01/08 08:45:22;;;;;;;27.73;15.43;;;11.30;65.10;;;;;;5102055;27;20443;-84
2023/01/08 08:47:49;;;;;;;23.73;15.50;;;11.40;65.10;;;;;;5053410;28;20458;-85
2023/01/08 08:50:16;;;;;;;29.27;16.90;;;11.50;64.50;;;;;;5085770;28;20533;-83
2023/01/08 08:52:44;;;;;;;17.60;10.37;;;11.60;64.20;;;;;;5051338;28;20439;-85
2023/01/08 08:55:15;;;;;;;17.63;11.70;;;11.40;63.10;;;;;;5067467;28;20466;-83
2023/01/08 08:57:43;;;;;;;13.20;10.70;;;11.40;63.80;;;;;;5060288;28;20454;-86
2023/01/08 09:00:11;;;;;;;17.20;12.40;;;11.60;63.60;;;;;;5072464;28;20443;-86
2023/01/08 09:02:38;;;;;;;25.67;14.67;;;11.70;63.10;;;;;;5081463;27;20457;-86
2023/01/08 09:05:05;;;;;;;44.00;18.50;;;11.80;62.80;;;;;;5070324;28;20535;-86
2023/01/08 09:07:32;;;;;;;25.17;14.53;;;11.70;63.10;;;;;;5051384;28;20865;-86
2023/01/08 09:09:59;;;;;;;25.43;15.77;;;11.80;62.90;;;;;;5049353;28;21102;-83
2023/01/08 09:12:28;;;;;;;18.80;12.90;;;11.70;63.10;;;;;;5066934;28;21031;-87
2023/01/08 09:14:55;;;;;;;12.90;9.40;;;11.70;63.00;;;;;;5104077;27;20493;-86
2023/01/08 09:17:24;;;;;;;16.90;10.53;;;11.70;63.20;;;;;;5068410;28;20745;-87
2023/01/08 09:19:51;;;;;;;13.67;9.77;;;11.60;63.30;;;;;;5069238;28;20838;-86
2023/01/08 09:22:18;;;;;;;15.17;11.30;;;11.60;64.20;;;;;;5041780;28;20827;-83
2023/01/08 09:24:45;;;;;;;13.87;11.07;;;11.70;64.20;;;;;;5059387;27;20444;-85
2023/01/08 09:27:11;;;;;;;15.57;9.87;;;11.70;63.90;;;;;;5069617;28;20804;-85
2023/01/08 09:29:40;;;;;;;12.30;9.90;;;11.40;64.40;;;;;;5063196;27;20462;-84
2023/01/08 09:32:07;;;;;;;12.93;8.97;;;11.50;65.50;;;;;;5071859;28;20443;-85
2023/01/08 09:34:35;;;;;;;8.07;6.50;;;11.50;65.60;;;;;;5065243;27;21007;-85
2023/01/08 09:37:02;;;;;;;11.47;8.20;;;11.70;65.20;;;;;;5059965;28;20458;-85
2023/01/08 09:39:29;;;;;;;12.87;8.93;;;11.90;65.30;;;;;;5065817;28;20505;-84
2023/01/08 09:41:58;;;;;;;13.70;8.40;;;12.00;64.70;;;;;;5068502;28;20451;-85
2023/01/08 09:44:31;;;;;;;17.83;10.13;;;12.10;64.10;;;;;;5083513;28;21108;-86
2023/01/08 09:47:00;;;;;;;12.03;9.07;;;12.10;64.30;;;;;;5068744;28;20457;-87
2023/01/08 09:49:34;;;;;;;13.80;8.20;;;12.20;64.20;;;;;;5065320;27;20466;-86
2023/01/08 09:52:02;;;;;;;8.40;5.43;;;12.30;64.10;;;;;;5067792;28;20459;-85
2023/01/08 09:54:29;;;;;;;6.67;4.20;;;12.30;63.70;;;;;;5101137;27;20471;-87
2023/01/08 09:56:58;;;;;;;8.73;5.00;;;12.20;63.80;;;;;;5068134;28;20450;-87
2023/01/08 09:59:26;;;;;;;8.10;6.57;;;12.10;64.70;;;;;;5065160;27;20468;-86
2023/01/08 10:01:53;;;;;;;8.83;5.60;;;12.10;65.00;;;;;;5054233;28;20447;-87
2023/01/08 10:04:24;;;;;;;18.83;7.50;;;12.10;64.70;;;;;;5072978;27;20450;-85
2023/01/08 10:06:55;;;;;;;7.93;5.43;;;12.00;64.90;;;;;;5068042;28;20998;-87
2023/01/08 10:09:27;;;;;;;8.27;5.30;;;11.90;65.70;;;;;;5067581;28;20604;-87
2023/01/08 10:11:56;;;;;;;8.13;6.47;;;12.10;65.20;;;;;;5073604;28;20454;-86
2023/01/08 10:14:26;;;;;;;10.77;8.30;;;12.00;65.10;;;;;;5088190;28;20463;-86
2023/01/08 10:16:57;;;;;;;13.30;8.87;;;11.90;65.90;;;;;;5069355;28;20508;-86
2023/01/08 10:19:26;;;;;;;48.23;30.27;;;11.90;65.90;;;;;;5052220;28;20485;-85
2023/01/08 10:21:53;;;;;;;53.40;35.63;;;12.30;65.30;;;;;;5059168;28;20447;-84
2023/01/08 10:24:31;;;;;;;25.70;16.37;;;12.50;64.60;;;;;;5090591;28;20439;-84
2023/01/08 10:27:06;;;;;;;15.00;9.93;;;12.70;64.20;;;;;;5052429;28;20434;-85
2023/01/08 10:29:33;;;;;;;31.50;16.93;;;12.80;64.00;;;;;;5066702;28;20459;-87
2023/01/08 10:32:08;;;;;;;22.33;13.47;;;12.90;63.80;;;;;;5053663;28;20650;-85
2023/01/08 10:34:44;;;;;;;23.30;14.93;;;13.00;64.10;;;;;;5083848;28;20477;-84
2023/01/08 10:37:17;;;;;;;22.00;16.87;;;12.90;64.20;;;;;;5051179;28;20451;-86
2023/01/08 10:39:47;;;;;;;15.93;12.77;;;12.70;64.90;;;;;;5083698;28;20465;-86
2023/01/08 10:42:16;;;;;;;8.17;6.97;;;12.80;65.00;;;;;;5058310;28;20797;-87
2023/01/08 10:44:52;;;;;;;13.73;5.80;;;12.70;64.50;;;;;;5067220;27;20442;-87
2023/01/08 10:47:19;;;;;;;8.37;5.33;;;12.60;65.20;;;;;;5051751;28;20445;-87
2023/01/08 10:49:47;;;;;;;4.40;3.07;;;12.70;65.10;;;;;;5067084;28;20960;-89
2023/01/08 10:52:27;;;;;;;5.90;3.90;;;12.60;65.70;;;;;;5084754;28;20449;-87
2023/01/08 10:54:55;;;;;;;5.23;4.17;;;12.80;65.60;;;;;;5084494;28;20462;-87
2023/01/08 10:57:25;;;;;;;3.00;2.70;;;12.90;65.50;;;;;;5068016;28;20451;-85
2023/01/08 10:59:52;;;;;;;4.37;3.90;;;12.90;64.80;;;;;;5054033;28;20469;-87
2023/01/08 11:02:33;;;;;;;3.80;3.40;;;12.70;65.10;;;;;;5096147;28;20444;-87
2023/01/08 11:05:04;;;;;;;2.73;2.50;;;12.50;65.60;;;;;;5054963;28;20478;-87
2023/01/08 11:07:34;;;;;;;5.70;4.00;;;12.50;65.60;;;;;;5041713;28;21351;-87
2023/01/08 11:10:02;;;;;;;7.60;4.30;;;12.40;66.00;;;;;;5065053;28;20532;-87
2023/01/08 11:12:35;;;;;;;4.63;4.23;;;12.50;66.50;;;;;;5066514;28;20450;-87
2023/01/08 11:15:03;;;;;;;3.33;2.90;;;12.50;65.50;;;;;;5043180;28;20833;-87
2023/01/08 11:17:30;;;;;;;2.97;2.07;;;12.40;66.40;;;;;;5079178;28;20439;-86
2023/01/08 11:20:09;;;;;;;3.60;3.07;;;12.60;66.00;;;;;;5062624;28;20578;-86
2023/01/08 11:22:36;;;;;;;3.30;3.00;;;12.50;66.30;;;;;;5065367;28;20477;-86
2023/01/08 11:25:08;;;;;;;4.10;2.93;;;12.70;65.60;;;;;;5047738;28;20449;-85
2023/01/08 11:27:39;;;;;;;3.37;2.90;;;12.80;65.50;;;;;;5067263;28;20443;-85
2023/01/08 11:30:11;;;;;;;3.50;2.87;;;12.70;65.00;;;;;;5052875;28;20443;-86
2023/01/08 11:32:47;;;;;;;4.13;3.13;;;12.80;65.30;;;;;;5066420;28;20823;-86
2023/01/08 11:35:19;;;;;;;2.93;2.60;;;12.80;64.40;;;;;;5053655;28;20483;-85
2023/01/08 11:37:52;;;;;;;2.70;2.50;;;12.60;65.20;;;;;;5066073;28;20431;-86
2023/01/08 11:40:28;;;;;;;3.50;3.17;;;12.70;64.80;;;;;;5051294;28;20500;-86
2023/01/08 11:43:12;;;;;;;3.50;2.70;;;12.60;65.50;;;;;;5069096;28;20443;-86
2023/01/08 11:45:55;;;;;;;7.53;3.23;;;12.30;66.60;;;;;;5052088;27;20935;-85
2023/01/08 11:48:35;;;;;;;15.50;7.57;;;12.40;66.80;;;;;;5071714;28;20470;-86
2023/01/08 11:51:28;;;;;;;3.20;2.90;;;12.40;66.80;;;;;;5088536;28;20450;-86
2023/01/08 11:54:05;;;;;;;4.07;3.03;;;12.50;66.70;;;;;;5054214;28;20443;-86
2023/01/08 11:56:47;;;;;;;4.03;3.47;;;12.70;66.30;;;;;;5085819;27;20466;-85
2023/01/08 11:59:23;;;;;;;5.37;4.30;;;12.70;65.70;;;;;;5062466;28;20459;-86
2023/01/08 12:02:01;;;;;;;3.93;3.63;;;12.80;65.70;;;;;;5056099;28;20435;-86
2023/01/08 12:04:52;;;;;;;3.53;2.90;;;13.00;64.60;;;;;;5070293;28;20466;-87
2023/01/08 12:07:25;;;;;;;4.00;3.30;;;13.00;64.90;;;;;;5060184;28;20546;-86
2023/01/08 12:10:01;;;;;;;2.60;2.40;;;13.20;64.10;;;;;;5088320;28;20851;-85
2023/01/08 12:12:45;;;;;;;3.53;2.10;;;13.20;64.20;;;;;;5084947;27;20525;-87
2023/01/08 12:15:19;;;;;;;2.77;2.57;;;13.10;64.30;;;;;;5071988;28;20474;-87
2023/01/08 12:18:05;;;;;;;2.43;2.23;;;13.10;64.20;;;;;;5070118;28;20458;-87
2023/01/08 12:20:37;;;;;;;2.30;2.10;;;13.10;64.50;;;;;;5078975;28;20450;-86
2023/01/08 12:23:27;;;;;;;5.70;3.00;;;13.20;64.40;;;;;;5072133;28;20466;-87
2023/01/08 12:26:14;;;;;;;2.93;2.73;;;13.40;64.10;;;;;;5083985;28;20447;-88
2023/01/08 12:29:10;;;;;;;2.60;2.40;;;13.60;63.50;;;;;;5089347;28;20467;-85
2023/01/08 12:31:56;;;;;;;2.17;2.07;;;13.50;63.40;;;;;;5086857;28;20439;-87
2023/01/08 12:34:36;;;;;;;2.10;1.90;;;13.20;63.80;;;;;;5056877;28;20455;-87
2023/01/08 12:37:11;;;;;;;2.00;1.80;;;13.10;64.50;;;;;;5084023;28;20442;-87
2023/01/08 12:39:47;;;;;;;1.97;1.83;;;13.00;64.20;;;;;;5085202;28;20463;-86
2023/01/08 12:42:23;;;;;;;1.93;1.83;;;12.90;64.20;;;;;;5072777;28;20441;-87
2023/01/08 12:44:54;;;;;;;2.10;1.87;;;12.70;65.10;;;;;;5064618;28;20458;-87